sensor_id;sensor_type;location;lat;lon;timestamp;pressure;altitude;pressure_sealevel;temperature;humidity
11108;BME280;5607;48.302;14.294;2023-02-10T00:02:11;100290.78;;;-1.12;92.73
11108;BME280;5607;48.302;14.294;2023-02-10T00:04:58;100299.22;;;-1.06;93.09
11108;BME280;5607;48.302;14.294;2023-02-10T00:07:44;100299.34;;;-1.14;93.20
11108;BME280;5607;48.302;14.294;2023-02-10T00:10:31;100264.59;;;-1.30;93.75
11108;BME280;5607;48.302;14.294;2023-02-10T00:13:17;100297.44;;;-1.01;92.62
11108;BME280;5607;48.302;14.294;2023-02-10T00:16:06;100308.22;;;-0.81;90.88
11108;BME280;5607;48.302;14.294;2023-02-10T00:18:53;100314.78;;;-1.19;91.70
11108;BME280;5607;48.302;14.294;2023-02-10T00:21:40;100318.38;;;-1.29;92.06
11108;BME280;5607;48.302;14.294;2023-02-10T00:24:27;100328.81;;;-1.43;92.29
11108;BME280;5607;48.302;14.294;2023-02-10T00:27:13;100322.97;;;-1.55;92.27
11108;BME280;5607;48.302;14.294;2023-02-10T00:30:00;100319.56;;;-1.54;92.54
11108;BME280;5607;48.302;14.294;2023-02-10T00:32:47;100319.41;;;-1.42;92.44
11108;BME280;5607;48.302;14.294;2023-02-10T00:35:33;100319.16;;;-1.24;91.76
11108;BME280;5607;48.302;14.294;2023-02-10T00:38:20;100316.44;;;-1.15;90.86
11108;BME280;5607;48.302;14.294;2023-02-10T00:41:17;100312.97;;;-1.12;91.08
11108;BME280;5607;48.302;14.294;2023-02-10T00:44:04;100311.19;;;-1.05;90.21
11108;BME280;5607;48.302;14.294;2023-02-10T00:46:51;100318.47;;;-1.38;91.58
11108;BME280;5607;48.302;14.294;2023-02-10T00:49:39;100321.03;;;-1.38;92.04
11108;BME280;5607;48.302;14.294;2023-02-10T00:52:26;100321.72;;;-1.24;91.45
11108;BME280;5607;48.302;14.294;2023-02-10T00:55:12;100316.69;;;-1.31;91.86
11108;BME280;5607;48.302;14.294;2023-02-10T00:57:59;100327.63;;;-1.20;91.05
11108;BME280;5607;48.302;14.294;2023-02-10T01:00:46;100321.50;;;-1.10;89.85
11108;BME280;5607;48.302;14.294;2023-02-10T01:03:33;100337.00;;;-1.19;89.95
11108;BME280;5607;48.302;14.294;2023-02-10T01:06:20;100337.94;;;-1.23;90.35
11108;BME280;5607;48.302;14.294;2023-02-10T01:09:07;100339.63;;;-1.22;90.22
11108;BME280;5607;48.302;14.294;2023-02-10T01:11:54;100340.72;;;-1.40;89.99
11108;BME280;5607;48.302;14.294;2023-02-10T01:14:40;100294.81;;;-1.55;89.69
11108;BME280;5607;48.302;14.294;2023-02-10T01:17:27;100339.69;;;-1.27;89.68
11108;BME280;5607;48.302;14.294;2023-02-10T01:20:14;100338.94;;;-1.33;89.45
11108;BME280;5607;48.302;14.294;2023-02-10T01:23:00;100346.69;;;-1.40;89.62
11108;BME280;5607;48.302;14.294;2023-02-10T01:25:47;100346.91;;;-1.56;91.61
11108;BME280;5607;48.302;14.294;2023-02-10T01:28:36;100347.44;;;-1.31;91.59
11108;BME280;5607;48.302;14.294;2023-02-10T01:31:22;100350.06;;;-1.36;91.68
11108;BME280;5607;48.302;14.294;2023-02-10T01:34:09;100352.63;;;-1.38;92.31
11108;BME280;5607;48.302;14.294;2023-02-10T01:36:56;100353.59;;;-1.45;92.22
11108;BME280;5607;48.302;14.294;2023-02-10T01:39:42;100364.88;;;-1.58;92.82
11108;BME280;5607;48.302;14.294;2023-02-10T01:42:29;100359.03;;;-1.68;93.65
11108;BME280;5607;48.302;14.294;2023-02-10T01:48:05;100369.06;;;-1.52;92.48
11108;BME280;5607;48.302;14.294;2023-02-10T01:50:57;100355.38;;;-1.48;92.62
11108;BME280;5607;48.302;14.294;2023-02-10T01:53:46;100360.25;;;-1.30;91.43
11108;BME280;5607;48.302;14.294;2023-02-10T01:56:33;100359.31;;;-1.26;91.26
11108;BME280;5607;48.302;14.294;2023-02-10T01:59:20;100330.44;;;-1.39;91.16
11108;BME280;5607;48.302;14.294;2023-02-10T02:02:10;100362.31;;;-1.58;93.17
11108;BME280;5607;48.302;14.294;2023-02-10T02:05:01;100368.47;;;-1.73;94.17
11108;BME280;5607;48.302;14.294;2023-02-10T02:07:48;100364.38;;;-1.89;95.50
11108;BME280;5607;48.302;14.294;2023-02-10T02:20:42;100359.41;;;-2.01;98.97
11108;BME280;5607;48.302;14.294;2023-02-10T02:23:54;100370.47;;;-1.98;98.69
11108;BME280;5607;48.302;14.294;2023-02-10T02:32:54;100360.78;;;-1.74;96.51
11108;BME280;5607;48.302;14.294;2023-02-10T02:36:08;100376.31;;;-1.88;96.65
11108;BME280;5607;48.302;14.294;2023-02-10T02:39:01;100375.38;;;-1.81;96.21
11108;BME280;5607;48.302;14.294;2023-02-10T02:41:59;100387.25;;;-1.74;94.71
11108;BME280;5607;48.302;14.294;2023-02-10T02:44:50;100377.97;;;-1.84;94.21
11108;BME280;5607;48.302;14.294;2023-02-10T02:54:21;100370.53;;;-2.05;92.30
11108;BME280;5607;48.302;14.294;2023-02-10T02:57:32;100375.47;;;-1.88;90.65
11108;BME280;5607;48.302;14.294;2023-02-10T03:00:26;100373.09;;;-2.07;91.58
11108;BME280;5607;48.302;14.294;2023-02-10T03:03:16;100389.31;;;-2.06;93.59
11108;BME280;5607;48.302;14.294;2023-02-10T03:06:03;100382.50;;;-2.09;93.66
11108;BME280;5607;48.302;14.294;2023-02-10T03:08:50;100372.31;;;-2.10;94.03
11108;BME280;5607;48.302;14.294;2023-02-10T03:11:36;100368.16;;;-2.24;94.01
11108;BME280;5607;48.302;14.294;2023-02-10T03:14:23;100377.47;;;-2.17;93.66
11108;BME280;5607;48.302;14.294;2023-02-10T03:17:10;100362.28;;;-2.33;94.15
11108;BME280;5607;48.302;14.294;2023-02-10T03:19:57;100373.28;;;-2.25;92.91
11108;BME280;5607;48.302;14.294;2023-02-10T03:22:43;100380.09;;;-2.24;93.46
11108;BME280;5607;48.302;14.294;2023-02-10T03:25:30;100385.22;;;-2.23;93.51
11108;BME280;5607;48.302;14.294;2023-02-10T03:28:16;100395.94;;;-1.88;91.75
11108;BME280;5607;48.302;14.294;2023-02-10T03:31:05;100393.56;;;-2.05;93.00
11108;BME280;5607;48.302;14.294;2023-02-10T03:33:52;100385.06;;;-2.07;92.35
11108;BME280;5607;48.302;14.294;2023-02-10T03:36:39;100402.81;;;-1.94;91.95
11108;BME280;5607;48.302;14.294;2023-02-10T03:39:25;100405.53;;;-2.07;92.28
11108;BME280;5607;48.302;14.294;2023-02-10T03:42:12;100404.88;;;-2.28;93.50
11108;BME280;5607;48.302;14.294;2023-02-10T03:44:58;100419.16;;;-2.05;91.28
11108;BME280;5607;48.302;14.294;2023-02-10T03:47:45;100415.81;;;-2.13;91.96
11108;BME280;5607;48.302;14.294;2023-02-10T03:50:32;100416.00;;;-2.33;93.30
11108;BME280;5607;48.302;14.294;2023-02-10T03:53:18;100385.38;;;-2.42;93.19
11108;BME280;5607;48.302;14.294;2023-02-10T03:56:05;100424.44;;;-2.21;92.92
11108;BME280;5607;48.302;14.294;2023-02-10T03:58:52;100427.06;;;-2.30;93.13
11108;BME280;5607;48.302;14.294;2023-02-10T04:01:39;100429.72;;;-2.40;94.32
11108;BME280;5607;48.302;14.294;2023-02-10T04:04:25;100427.34;;;-2.68;95.76
11108;BME280;5607;48.302;14.294;2023-02-10T04:07:12;100414.53;;;-2.60;96.35
11108;BME280;5607;48.302;14.294;2023-02-10T04:09:58;100425.56;;;-2.54;95.50
11108;BME280;5607;48.302;14.294;2023-02-10T04:12:45;100430.66;;;-2.52;96.38
11108;BME280;5607;48.302;14.294;2023-02-10T04:15:32;100431.53;;;-2.53;95.96
11108;BME280;5607;48.302;14.294;2023-02-10T04:18:18;100433.22;;;-2.55;97.07
11108;BME280;5607;48.302;14.294;2023-02-10T04:21:10;100425.56;;;-2.55;96.09
11108;BME280;5607;48.302;14.294;2023-02-10T04:23:56;100423.03;;;-2.58;96.83
11108;BME280;5607;48.302;14.294;2023-02-10T04:26:43;100426.34;;;-2.46;95.38
11108;BME280;5607;48.302;14.294;2023-02-10T04:29:29;100425.69;;;-2.75;96.08
11108;BME280;5607;48.302;14.294;2023-02-10T04:32:16;100431.63;;;-2.68;96.33
11108;BME280;5607;48.302;14.294;2023-02-10T04:35:03;100421.22;;;-2.44;94.82
11108;BME280;5607;48.302;14.294;2023-02-10T04:37:49;100403.38;;;-2.53;94.54
11108;BME280;5607;48.302;14.294;2023-02-10T04:40:36;100436.53;;;-2.42;94.56
11108;BME280;5607;48.302;14.294;2023-02-10T04:43:23;100434.00;;;-2.44;94.95
11108;BME280;5607;48.302;14.294;2023-02-10T04:46:09;100411.78;;;-2.37;94.62
11108;BME280;5607;48.302;14.294;2023-02-10T04:48:56;100420.22;;;-2.28;94.69
11108;BME280;5607;48.302;14.294;2023-02-10T04:51:43;100433.88;;;-2.30;94.55
11108;BME280;5607;48.302;14.294;2023-02-10T04:54:29;100424.56;;;-2.36;94.78
11108;BME280;5607;48.302;14.294;2023-02-10T04:57:16;100430.47;;;-2.29;95.09
11108;BME280;5607;48.302;14.294;2023-02-10T05:00:04;100432.06;;;-2.16;94.42
11108;BME280;5607;48.302;14.294;2023-02-10T05:02:51;100428.81;;;-2.36;95.55
11108;BME280;5607;48.302;14.294;2023-02-10T05:05:37;100445.00;;;-2.33;93.01
11108;BME280;5607;48.302;14.294;2023-02-10T05:08:24;100445.91;;;-2.40;92.95
11108;BME280;5607;48.302;14.294;2023-02-10T05:11:13;100447.59;;;-2.39;92.33
11108;BME280;5607;48.302;14.294;2023-02-10T05:13:59;100459.75;;;-2.70;93.57
11108;BME280;5607;48.302;14.294;2023-02-10T05:16:46;100453.75;;;-2.67;94.82
11108;BME280;5607;48.302;14.294;2023-02-10T05:19:32;100459.72;;;-2.64;95.14
11108;BME280;5607;48.302;14.294;2023-02-10T05:22:19;100458.84;;;-2.61;95.18
11108;BME280;5607;48.302;14.294;2023-02-10T05:25:08;100455.31;;;-2.45;94.43
11108;BME280;5607;48.302;14.294;2023-02-10T05:27:55;100455.44;;;-2.59;95.57
11108;BME280;5607;48.302;14.294;2023-02-10T05:30:41;100452.06;;;-2.68;95.24
11108;BME280;5607;48.302;14.294;2023-02-10T05:33:28;100474.94;;;-2.49;95.09
11108;BME280;5607;48.302;14.294;2023-02-10T05:36:14;100480.06;;;-2.47;95.47
11108;BME280;5607;48.302;14.294;2023-02-10T05:39:01;100484.28;;;-2.43;95.33
11108;BME280;5607;48.302;14.294;2023-02-10T05:42:06;100487.72;;;-2.49;95.00
11108;BME280;5607;48.302;14.294;2023-02-10T05:44:53;100492.13;;;-2.69;94.73
11108;BME280;5607;48.302;14.294;2023-02-10T05:47:39;100488.72;;;-2.68;94.43
11108;BME280;5607;48.302;14.294;2023-02-10T05:50:26;100490.50;;;-2.82;95.63
11108;BME280;5607;48.302;14.294;2023-02-10T05:53:13;100496.41;;;-2.66;96.50
11108;BME280;5607;48.302;14.294;2023-02-10T05:55:59;100487.81;;;-2.59;95.54
11108;BME280;5607;48.302;14.294;2023-02-10T05:58:46;100496.31;;;-2.57;97.21
11108;BME280;5607;48.302;14.294;2023-02-10T06:01:33;100487.81;;;-2.59;97.84
11108;BME280;5607;48.302;14.294;2023-02-10T06:04:19;100493.75;;;-2.56;96.92
11108;BME280;5607;48.302;14.294;2023-02-10T06:07:06;100491.38;;;-2.88;97.04
11108;BME280;5607;48.302;14.294;2023-02-10T06:09:52;100507.53;;;-2.80;97.71
11108;BME280;5607;48.302;14.294;2023-02-10T06:12:39;100494.03;;;-3.05;96.67
11108;BME280;5607;48.302;14.294;2023-02-10T06:15:25;100516.19;;;-3.11;96.59
11108;BME280;5607;48.302;14.294;2023-02-10T06:18:12;100518.84;;;-3.34;96.82
11108;BME280;5607;48.302;14.294;2023-02-10T06:20:59;100519.66;;;-3.25;96.39
11108;BME280;5607;48.302;14.294;2023-02-10T06:23:47;100525.53;;;-3.00;95.91
11108;BME280;5607;48.302;14.294;2023-02-10T06:26:33;100530.53;;;-2.80;96.08
11108;BME280;5607;48.302;14.294;2023-02-10T06:29:20;100544.91;;;-2.54;94.89
11108;BME280;5607;48.302;14.294;2023-02-10T06:32:07;100550.81;;;-2.49;94.78
11108;BME280;5607;48.302;14.294;2023-02-10T06:34:53;100554.34;;;-2.61;93.72
11108;BME280;5607;48.302;14.294;2023-02-10T06:37:40;100567.97;;;-2.60;93.62
11108;BME280;5607;48.302;14.294;2023-02-10T06:40:26;100566.28;;;-2.71;92.59
11108;BME280;5607;48.302;14.294;2023-02-10T06:43:13;100566.31;;;-2.77;92.56
11108;BME280;5607;48.302;14.294;2023-02-10T06:46:00;100569.75;;;-2.78;93.37
11108;BME280;5607;48.302;14.294;2023-02-10T06:48:47;100579.00;;;-2.57;92.90
11108;BME280;5607;48.302;14.294;2023-02-10T06:51:34;100579.81;;;-2.49;91.91
11108;BME280;5607;48.302;14.294;2023-02-10T06:54:21;100585.81;;;-2.53;92.38
11108;BME280;5607;48.302;14.294;2023-02-10T06:57:07;100584.88;;;-2.38;91.49
11108;BME280;5607;48.302;14.294;2023-02-10T06:59:54;100579.00;;;-2.57;91.03
11108;BME280;5607;48.302;14.294;2023-02-10T07:02:41;100578.31;;;-2.91;93.77
11108;BME280;5607;48.302;14.294;2023-02-10T07:05:27;100583.44;;;-2.91;95.40
11108;BME280;5607;48.302;14.294;2023-02-10T07:08:14;100580.00;;;-2.93;95.00
11108;BME280;5607;48.302;14.294;2023-02-10T07:11:01;100599.53;;;-2.75;94.67
11108;BME280;5607;48.302;14.294;2023-02-10T07:13:48;100605.47;;;-2.59;93.35
11108;BME280;5607;48.302;14.294;2023-02-10T07:16:34;100596.03;;;-2.51;92.83
11108;BME280;5607;48.302;14.294;2023-02-10T07:19:21;100600.28;;;-2.47;92.31
11108;BME280;5607;48.302;14.294;2023-02-10T07:22:26;100612.97;;;-2.27;91.54
11108;BME280;5607;48.302;14.294;2023-02-10T07:25:18;100601.00;;;-2.25;90.32
11108;BME280;5607;48.302;14.294;2023-02-10T07:28:05;100601.91;;;-2.29;90.40
11108;BME280;5607;48.302;14.294;2023-02-10T07:31:03;100606.97;;;-2.23;90.48
11108;BME280;5607;48.302;14.294;2023-02-10T07:33:51;100605.22;;;-2.17;90.54
11108;BME280;5607;48.302;14.294;2023-02-10T07:36:38;100619.63;;;-1.99;91.78
11108;BME280;5607;48.302;14.294;2023-02-10T07:39:24;100617.84;;;-1.89;91.50
11108;BME280;5607;48.302;14.294;2023-02-10T07:42:14;100628.06;;;-1.89;92.30
11108;BME280;5607;48.302;14.294;2023-02-10T07:45:00;100631.50;;;-1.90;92.33
11108;BME280;5607;48.302;14.294;2023-02-10T07:47:48;100633.16;;;-1.84;92.20
11108;BME280;5607;48.302;14.294;2023-02-10T07:50:34;100629.75;;;-1.86;92.26
11108;BME280;5607;48.302;14.294;2023-02-10T07:53:21;100632.25;;;-1.76;92.30
11108;BME280;5607;48.302;14.294;2023-02-10T07:56:08;100629.53;;;-1.56;91.73
11108;BME280;5607;48.302;14.294;2023-02-10T07:58:55;100639.72;;;-1.50;90.73
11108;BME280;5607;48.302;14.294;2023-02-10T08:01:42;100642.25;;;-1.45;89.66
11108;BME280;5607;48.302;14.294;2023-02-10T08:04:32;100641.25;;;-1.29;89.28
11108;BME280;5607;48.302;14.294;2023-02-10T08:07:19;100639.53;;;-1.28;88.95
11108;BME280;5607;48.302;14.294;2023-02-10T08:10:05;100640.97;;;-1.01;87.71
11108;BME280;5607;48.302;14.294;2023-02-10T08:12:52;100639.19;;;-0.92;87.58
11108;BME280;5607;48.302;14.294;2023-02-10T08:15:39;100651.97;;;-0.90;87.46
11108;BME280;5607;48.302;14.294;2023-02-10T08:18:26;100642.47;;;-0.82;87.92
11108;BME280;5607;48.302;14.294;2023-02-10T08:21:12;100657.16;;;-0.96;87.78
11108;BME280;5607;48.302;14.294;2023-02-10T08:23:59;100647.03;;;-1.09;88.39
11108;BME280;5607;48.302;14.294;2023-02-10T08:26:45;100657.81;;;-0.74;87.25
11108;BME280;5607;48.302;14.294;2023-02-10T08:29:32;100658.84;;;-0.94;88.56
11108;BME280;5607;48.302;14.294;2023-02-10T08:32:18;100659.03;;;-1.11;89.57
11108;BME280;5607;48.302;14.294;2023-02-10T08:35:05;100666.47;;;-0.86;88.79
11108;BME280;5607;48.302;14.294;2023-02-10T08:37:52;100670.50;;;-0.64;88.34
11108;BME280;5607;48.302;14.294;2023-02-10T08:40:38;100662.59;;;-0.45;87.90
11108;BME280;5607;48.302;14.294;2023-02-10T08:43:25;100664.13;;;-0.31;87.38
11108;BME280;5607;48.302;14.294;2023-02-10T08:46:12;100659.97;;;-0.44;87.66
11108;BME280;5607;48.302;14.294;2023-02-10T08:48:59;100658.44;;;-0.56;89.55
11108;BME280;5607;48.302;14.294;2023-02-10T08:51:47;100668.59;;;-0.46;88.18
11108;BME280;5607;48.302;14.294;2023-02-10T08:54:33;100665.38;;;0.03;87.54
11108;BME280;5607;48.302;14.294;2023-02-10T08:57:20;100664.41;;;0.10;86.83
11108;BME280;5607;48.302;14.294;2023-02-10T09:00:07;100661.72;;;0.20;87.04
11108;BME280;5607;48.302;14.294;2023-02-10T09:02:54;100674.78;;;0.61;84.84
11108;BME280;5607;48.302;14.294;2023-02-10T09:05:41;100673.09;;;0.58;84.41
11108;BME280;5607;48.302;14.294;2023-02-10T09:08:30;100679.59;;;0.79;83.55
11108;BME280;5607;48.302;14.294;2023-02-10T09:11:17;100661.16;;;0.54;84.24
11108;BME280;5607;48.302;14.294;2023-02-10T09:14:03;100668.34;;;0.88;83.26
11108;BME280;5607;48.302;14.294;2023-02-10T09:16:50;100663.59;;;1.11;81.05
11108;BME280;5607;48.302;14.294;2023-02-10T09:19:38;100654.34;;;1.02;80.92
11108;BME280;5607;48.302;14.294;2023-02-10T09:22:24;100665.50;;;1.01;81.63
11108;BME280;5607;48.302;14.294;2023-02-10T09:25:11;100666.94;;;1.16;81.39
11108;BME280;5607;48.302;14.294;2023-02-10T09:27:58;100679.56;;;0.82;83.02
11108;BME280;5607;48.302;14.294;2023-02-10T09:30:44;100681.81;;;1.00;82.16
11108;BME280;5607;48.302;14.294;2023-02-10T09:33:31;100684.34;;;1.03;82.71
11108;BME280;5607;48.302;14.294;2023-02-10T09:36:19;100660.28;;;1.04;81.25
11108;BME280;5607;48.302;14.294;2023-02-10T09:39:06;100696.94;;;0.69;82.95
11108;BME280;5607;48.302;14.294;2023-02-10T09:42:22;100696.97;;;0.66;84.31
11108;BME280;5607;48.302;14.294;2023-02-10T09:45:24;100702.31;;;1.05;82.93
11108;BME280;5607;48.302;14.294;2023-02-10T09:48:23;100699.66;;;1.10;82.11
11108;BME280;5607;48.302;14.294;2023-02-10T09:54:13;100696.34;;;1.03;83.39
11108;BME280;5607;48.302;14.294;2023-02-10T09:57:07;100698.84;;;0.57;85.19
11108;BME280;5607;48.302;14.294;2023-02-10T09:59:56;100707.88;;;0.82;84.36
11108;BME280;5607;48.302;14.294;2023-02-10T10:02:54;100710.44;;;0.82;86.20
11108;BME280;5607;48.302;14.294;2023-02-10T10:05:59;100707.44;;;1.05;85.25
11108;BME280;5607;48.302;14.294;2023-02-10T10:11:51;100703.59;;;0.81;85.49
11108;BME280;5607;48.302;14.294;2023-02-10T10:14:40;100702.25;;;0.57;87.24
11108;BME280;5607;48.302;14.294;2023-02-10T10:20:52;100706.34;;;0.70;87.99
11108;BME280;5607;48.302;14.294;2023-02-10T10:29:52;100705.09;;;0.94;86.90
11108;BME280;5607;48.302;14.294;2023-02-10T10:32:53;100703.09;;;1.08;87.01
11108;BME280;5607;48.302;14.294;2023-02-10T10:35:43;100665.09;;;1.23;86.47
11108;BME280;5607;48.302;14.294;2023-02-10T10:38:38;100669.50;;;1.63;84.30
11108;BME280;5607;48.302;14.294;2023-02-10T10:41:30;100667.63;;;1.69;83.74
11108;BME280;5607;48.302;14.294;2023-02-10T10:44:18;100663.75;;;1.90;82.09
11108;BME280;5607;48.302;14.294;2023-02-10T10:50:29;100650.59;;;2.02;81.99
11108;BME280;5607;48.302;14.294;2023-02-10T10:53:44;100635.50;;;2.24;80.12
11108;BME280;5607;48.302;14.294;2023-02-10T10:59:40;100661.38;;;1.81;79.83
11108;BME280;5607;48.302;14.294;2023-02-10T11:02:29;100654.44;;;2.22;80.20
11108;BME280;5607;48.302;14.294;2023-02-10T11:05:15;100654.81;;;2.42;78.81
11108;BME280;5607;48.302;14.294;2023-02-10T11:08:04;100650.50;;;2.44;77.88
11108;BME280;5607;48.302;14.294;2023-02-10T11:10:56;100641.22;;;1.98;78.38
11108;BME280;5607;48.302;14.294;2023-02-10T11:13:54;100619.81;;;2.33;77.24
11108;BME280;5607;48.302;14.294;2023-02-10T11:16:45;100640.75;;;2.89;74.97
11108;BME280;5607;48.302;14.294;2023-02-10T11:19:34;100614.19;;;2.86;74.32
11108;BME280;5607;48.302;14.294;2023-02-10T11:22:21;100621.81;;;3.21;73.66
11108;BME280;5607;48.302;14.294;2023-02-10T11:28:18;100608.34;;;3.41;70.98
11108;BME280;5607;48.302;14.294;2023-02-10T11:31:33;100613.53;;;3.40;70.23
11108;BME280;5607;48.302;14.294;2023-02-10T11:34:33;100621.41;;;3.06;71.03
11108;BME280;5607;48.302;14.294;2023-02-10T11:37:32;100609.84;;;2.54;73.93
11108;BME280;5607;48.302;14.294;2023-02-10T11:40:22;100599.09;;;2.70;73.82
11108;BME280;5607;48.302;14.294;2023-02-10T11:43:13;100600.56;;;2.81;72.78
11108;BME280;5607;48.302;14.294;2023-02-10T11:46:03;100574.47;;;2.59;73.70
11108;BME280;5607;48.302;14.294;2023-02-10T11:49:01;100595.16;;;2.90;73.17
11108;BME280;5607;48.302;14.294;2023-02-10T11:51:55;100580.44;;;3.24;72.15
11108;BME280;5607;48.302;14.294;2023-02-10T11:54:43;100577.50;;;3.37;72.24
11108;BME280;5607;48.302;14.294;2023-02-10T11:58:23;100585.06;;;3.43;72.88
11108;BME280;5607;48.302;14.294;2023-02-10T12:01:58;100586.94;;;3.07;73.87
11108;BME280;5607;48.302;14.294;2023-02-10T12:11:06;100559.50;;;3.34;71.52
11108;BME280;5607;48.302;14.294;2023-02-10T12:14:15;100571.69;;;3.29;72.51
11108;BME280;5607;48.302;14.294;2023-02-10T12:20:53;100574.94;;;3.65;71.58
11108;BME280;5607;48.302;14.294;2023-02-10T12:26:29;100568.28;;;4.12;69.63
11108;BME280;5607;48.302;14.294;2023-02-10T12:32:54;100554.41;;;4.15;68.54
11108;BME280;5607;48.302;14.294;2023-02-10T12:38:56;100535.75;;;4.31;67.43
11108;BME280;5607;48.302;14.294;2023-02-10T12:45:28;100503.34;;;4.21;66.32
11108;BME280;5607;48.302;14.294;2023-02-10T12:54:43;100533.13;;;5.06;62.62
11108;BME280;5607;48.302;14.294;2023-02-10T12:57:52;100530.00;;;4.97;60.76
11108;BME280;5607;48.302;14.294;2023-02-10T13:04:15;100519.47;;;4.78;60.59
11108;BME280;5607;48.302;14.294;2023-02-10T13:13:41;100520.97;;;5.08;59.52
11108;BME280;5607;48.302;14.294;2023-02-10T13:16:33;100515.41;;;4.72;60.21
11108;BME280;5607;48.302;14.294;2023-02-10T13:22:49;100532.94;;;4.88;58.17
11108;BME280;5607;48.302;14.294;2023-02-10T13:26:13;100525.84;;;4.44;57.24
11108;BME280;5607;48.302;14.294;2023-02-10T13:35:23;100510.44;;;4.66;55.22
11108;BME280;5607;48.302;14.294;2023-02-10T13:38:17;100523.75;;;5.04;55.12
11108;BME280;5607;48.302;14.294;2023-02-10T13:41:04;100537.34;;;4.85;54.37
11108;BME280;5607;48.302;14.294;2023-02-10T13:44:28;100525.06;;;4.91;53.87
11108;BME280;5607;48.302;14.294;2023-02-10T13:50:42;100522.22;;;5.22;53.69
11108;BME280;5607;48.302;14.294;2023-02-10T14:02:20;100526.59;;;4.96;54.26
11108;BME280;5607;48.302;14.294;2023-02-10T14:05:31;100523.56;;;4.85;55.52
11108;BME280;5607;48.302;14.294;2023-02-10T14:14:19;100520.72;;;4.68;55.28
11108;BME280;5607;48.302;14.294;2023-02-10T14:19:59;100519.81;;;4.69;55.61
11108;BME280;5607;48.302;14.294;2023-02-10T14:22:50;100523.31;;;4.68;55.98
11108;BME280;5607;48.302;14.294;2023-02-10T14:25:40;100522.97;;;4.77;55.29
11108;BME280;5607;48.302;14.294;2023-02-10T14:28:31;100524.31;;;4.64;56.07
11108;BME280;5607;48.302;14.294;2023-02-10T14:31:27;100518.84;;;4.71;56.39
11108;BME280;5607;48.302;14.294;2023-02-10T14:34:21;100516.66;;;4.84;55.68
11108;BME280;5607;48.302;14.294;2023-02-10T14:37:19;100494.53;;;4.52;56.05
11108;BME280;5607;48.302;14.294;2023-02-10T14:40:16;100509.97;;;4.55;55.86
11108;BME280;5607;48.302;14.294;2023-02-10T14:43:03;100527.69;;;4.41;56.42
11108;BME280;5607;48.302;14.294;2023-02-10T14:45:50;100522.97;;;4.27;56.85
11108;BME280;5607;48.302;14.294;2023-02-10T14:48:36;100509.91;;;4.31;56.99
11108;BME280;5607;48.302;14.294;2023-02-10T14:51:25;100512.50;;;4.31;56.93
11108;BME280;5607;48.302;14.294;2023-02-10T14:54:18;100506.75;;;4.23;56.83
11108;BME280;5607;48.302;14.294;2023-02-10T14:57:11;100523.38;;;4.15;57.07
11108;BME280;5607;48.302;14.294;2023-02-10T15:00:00;100515.47;;;4.19;56.97
11108;BME280;5607;48.302;14.294;2023-02-10T15:02:49;100519.22;;;4.11;57.03
11108;BME280;5607;48.302;14.294;2023-02-10T15:05:46;100524.31;;;4.39;57.29
11108;BME280;5607;48.302;14.294;2023-02-10T15:08:47;100523.16;;;4.22;57.32
11108;BME280;5607;48.302;14.294;2023-02-10T15:11:42;100526.59;;;4.21;57.33
11108;BME280;5607;48.302;14.294;2023-02-10T15:18:07;100528.16;;;4.27;57.23
11108;BME280;5607;48.302;14.294;2023-02-10T15:21:00;100525.75;;;4.22;57.57
11108;BME280;5607;48.302;14.294;2023-02-10T15:23:47;100537.50;;;4.31;57.34
11108;BME280;5607;48.302;14.294;2023-02-10T15:26:35;100535.28;;;4.20;57.38
11108;BME280;5607;48.302;14.294;2023-02-10T15:29:35;100532.88;;;4.14;57.85
11108;BME280;5607;48.302;14.294;2023-02-10T15:32:22;100525.44;;;4.05;58.23
11108;BME280;5607;48.302;14.294;2023-02-10T15:35:12;100518.34;;;3.85;58.23
11108;BME280;5607;48.302;14.294;2023-02-10T15:38:02;100525.03;;;3.91;58.61
11108;BME280;5607;48.302;14.294;2023-02-10T15:40:54;100531.94;;;3.90;59.26
11108;BME280;5607;48.302;14.294;2023-02-10T15:43:47;100531.09;;;3.90;59.24
11108;BME280;5607;48.302;14.294;2023-02-10T15:46:35;100503.50;;;3.64;59.50
11108;BME280;5607;48.302;14.294;2023-02-10T15:49:22;100525.38;;;3.80;59.87
11108;BME280;5607;48.302;14.294;2023-02-10T15:52:12;100526.81;;;3.89;59.66
11108;BME280;5607;48.302;14.294;2023-02-10T15:55:03;100520.50;;;3.71;60.15
11108;BME280;5607;48.302;14.294;2023-02-10T15:57:50;100523.00;;;3.72;60.02
11108;BME280;5607;48.302;14.294;2023-02-10T16:00:38;100527.41;;;3.70;60.61
11108;BME280;5607;48.302;14.294;2023-02-10T16:03:25;100526.94;;;3.58;61.39
11108;BME280;5607;48.302;14.294;2023-02-10T16:06:13;100507.34;;;3.50;61.31
11108;BME280;5607;48.302;14.294;2023-02-10T16:09:00;100528.97;;;3.48;61.69
11108;BME280;5607;48.302;14.294;2023-02-10T16:11:47;100523.41;;;3.32;62.38
11108;BME280;5607;48.302;14.294;2023-02-10T16:14:33;100521.22;;;3.18;62.62
11108;BME280;5607;48.302;14.294;2023-02-10T16:17:23;100523.03;;;3.15;63.20
11108;BME280;5607;48.302;14.294;2023-02-10T16:20:21;100511.97;;;3.11;63.52
11108;BME280;5607;48.302;14.294;2023-02-10T16:23:16;100525.06;;;3.05;63.51
11108;BME280;5607;48.302;14.294;2023-02-10T16:26:03;100527.66;;;3.05;64.03
11108;BME280;5607;48.302;14.294;2023-02-10T16:28:50;100521.53;;;3.08;64.22
11108;BME280;5607;48.302;14.294;2023-02-10T16:31:37;100531.97;;;3.05;64.56
11108;BME280;5607;48.302;14.294;2023-02-10T16:34:24;100534.63;;;3.02;64.58
11108;BME280;5607;48.302;14.294;2023-02-10T16:37:21;100531.19;;;3.01;64.58
11108;BME280;5607;48.302;14.294;2023-02-10T16:40:15;100543.03;;;3.08;64.78
11108;BME280;5607;48.302;14.294;2023-02-10T16:43:04;100539.81;;;3.00;64.72
11108;BME280;5607;48.302;14.294;2023-02-10T16:45:50;100548.47;;;2.99;64.46
11108;BME280;5607;48.302;14.294;2023-02-10T16:48:37;100548.53;;;2.96;64.68
11108;BME280;5607;48.302;14.294;2023-02-10T16:51:23;100550.81;;;2.76;65.81
11108;BME280;5607;48.302;14.294;2023-02-10T16:54:10;100552.78;;;2.66;66.52
11108;BME280;5607;48.302;14.294;2023-02-10T16:56:57;100543.63;;;2.54;67.22
11108;BME280;5607;48.302;14.294;2023-02-10T16:59:44;100549.78;;;2.50;67.26